Share

Brookings, SD (57007)

Indian Hills (KSDBROOK3) Elev 1650 ft | 44.29 °N, 96.80 °W | Change Station

Current weather conditions updated 2 minutes ago

Clear
Clear
51.7 °F
Feels Like 51.7 °F
N
4.0
Wind Variable Wind from South
Gusts 4.0 mph
Sunrise 6:36 AM
Sunset 8:16 PM
Moon Waning Gibbous

Today is forecast to be Warmer than yesterday.

Pressure 29.88 in
Visibility 10.0 miles
Clouds Clear
Dew Point 42 °F
Humidity 69%
Rainfall 0.00 in
Snow Depth Not available.
UV 0 out of 16
Pollen 10.70 out of 12
Air Quality Not available.
Flu Activity Sporadic
METAR KMDS 190815Z AUTO 17022G29KT 10SM CLR 12/04 A2988 RMK AO2

More Conditions Fewer Conditions

Pressure 29.88 in
Visibility 10.0 miles
Clouds Clear
Dew Point 42 °F
Humidity 69%
Rainfall 0.00 in
Snow Depth Not available.
UV 0 out of 16
Pollen 10.70 out of 12
Air Quality Not available.
Flu Activity Sporadic
METAR KMDS 190815Z AUTO 17022G29KT 10SM CLR 12/04 A2988 RMK AO2

More Conditions Fewer Conditions

10-Day Weather Forecast

Almanac

Astronomy

Apr. 19, 2014 Rise Set
Actual Time 6:36 AM CDT 8:16 PM CDT
Civil Twilight 6:06 AM CDT 8:47 PM CDT
Nautical Twilight 5:28 AM CDT 9:24 PM CDT
Astronomical Twilight 4:49 AM CDT 10:04 PM CDT
Moon 12:06 AM CDT 9:51 AM CDT
Length of Visible Light 14h 41m
Length of Day
13h 39m
Tomorrow will be 2m 52s longer.
Waning Gibbous, 81% of the Moon is Illuminated
Today
Waning Gibbous
Apr 22
Last Quarter
Apr 29
New
May 6
First Quarter
May 14
Full

Today's Extremes

State Highs State Lows

Community

  • Sunset Silhouettes
    Sunset Silhouettes
  • FL sunset Perico Isle
    FL sunset Perico Isle
  • Cloudy spring view
    Cloudy spring view
  • Old barn
    Old barn
  • What's for Lunch?
    What's for Lunch?

WunderPhotos

Upload Photos

1,702,670 photos uploaded!

WunderBlogs® & News

Nearby

Snow Depth

Station Depth Elevation
North Rapid Creek 20 in 6130 ft
Blind Park 22 in 6890 ft

Coastal Water Temperatures

Place Temperature
No Stations Reporting

Earthquake Activity

City Distance Mag. Time & Date
No recent earthquake activity has been reported nearby.
Minimum magnitude displayed is 2.5.

Nearby Weather Stations

Station Location Temp. Windchill Dew Point Humidity Wind Precip. Elev Updated Type
Indian Hills, Brookings, SD 51.7 °F - 42 °F 69% South  at  4.0 mph 0.00 in / hr 1650 ft 3:20 AM CDT Normal
Valley View, Brookings, SD, Brookings, SD 52.0 °F - 41 °F 67% East  at  5.8 mph 0.00 in / hr 1601 ft 3:22 AM CDT Rapid Fire
Elkton, SD, Elkton, SD 51.6 °F - 41 °F 66% SE  at  16.0 mph 0.00 in / hr 1702 ft 3:22 AM CDT Rapid Fire
MNDOT Lake Benton US-14 Mile Post 7, Lake Benton, MN 49 °F 42 °F 36 °F 57% SE  at  21 mph 0.00 in / hr 1954 ft 12:10 AM CDT MADIS

Show More Stations Show Fewer Stations

What do you think?

We're not finished. Please let us know what you like, what you don't like, and what you are still missing.